Time;durP1;ratioP1;P1;durP2;ratioP2;P2;SDS_P1;SDS_P2;PMS_P1;PMS_P2;Temp;Humidity;BMP_temperature;BMP_pressure;BME280_temperature;BME280_humidity;BME280_pressure;Samples;Min_cycle;Max_cycle;Signal;HPM_P1;HPM_P2
2022/03/02 00:01:14;;;;;;;23.87;19.00;;;;;;;1.01;56.69;95356.44;4996057;28;20265;-58
2022/03/02 00:03:43;;;;;;;23.93;18.97;;;;;;;0.86;56.73;95363.31;5002180;28;20231;-61
2022/03/02 00:06:12;;;;;;;23.43;19.37;;;;;;;0.84;56.82;95356.56;5000014;28;20298;-55
2022/03/02 00:08:37;;;;;;;22.30;17.93;;;;;;;1.03;56.48;95356.38;5000702;28;20227;-59
2022/03/02 00:11:03;;;;;;;24.33;18.90;;;;;;;0.92;56.87;95353.56;5001951;28;20215;-59
2022/03/02 00:13:29;;;;;;;22.63;17.37;;;;;;;0.93;56.64;95339.69;5003947;28;20282;-55
2022/03/02 00:15:54;;;;;;;21.43;17.43;;;;;;;0.86;56.35;95340.03;5004576;28;20211;-59
2022/03/02 00:18:20;;;;;;;21.87;17.23;;;;;;;0.94;56.40;95347.38;4998781;28;20245;-60
2022/03/02 00:20:45;;;;;;;21.13;17.47;;;;;;;0.77;56.81;95344.88;5003001;28;20294;-60
2022/03/02 00:23:11;;;;;;;17.87;15.97;;;;;;;0.78;56.87;95337.03;4996400;28;20254;-57
2022/03/02 00:25:36;;;;;;;20.43;16.53;;;;;;;0.87;56.54;95338.25;4998742;28;20217;-61
2022/03/02 00:28:02;;;;;;;20.87;15.77;;;;;;;0.82;56.07;95341.09;4998994;28;20208;-56
2022/03/02 00:30:28;;;;;;;19.50;15.87;;;;;;;0.81;56.28;95341.19;4998698;28;20251;-59
2022/03/02 00:32:59;;;;;;;20.97;16.30;;;;;;;0.70;57.08;95328.84;4999360;28;20239;-60
2022/03/02 00:35:25;;;;;;;18.70;16.33;;;;;;;0.63;58.09;95328.34;5001163;28;20230;-61
2022/03/02 00:37:50;;;;;;;19.83;15.83;;;;;;;0.74;57.96;95319.97;5003843;28;20215;-62
2022/03/02 00:40:16;;;;;;;21.87;15.90;;;;;;;0.69;57.91;95322.00;5002299;28;20287;-60
2022/03/02 00:42:43;;;;;;;18.23;16.07;;;;;;;0.61;57.72;95319.81;4997968;28;20277;-58
2022/03/02 00:45:09;;;;;;;21.23;15.80;;;;;;;0.59;57.63;95313.91;5003317;28;20219;-61
2022/03/02 00:47:35;;;;;;;18.47;15.53;;;;;;;0.60;57.45;95314.75;5003806;28;20238;-61
2022/03/02 00:50:02;;;;;;;19.17;15.13;;;;;;;0.38;58.29;95308.16;5003585;28;20227;-56
2022/03/02 00:52:28;;;;;;;16.43;14.70;;;;;;;0.49;57.50;95301.56;5003849;28;20204;-58
2022/03/02 00:54:55;;;;;;;17.80;14.37;;;;;;;0.44;57.43;95300.03;4999710;28;20291;-62
2022/03/02 00:57:20;;;;;;;15.93;14.07;;;;;;;0.31;57.51;95291.28;4997178;28;20245;-58
2022/03/02 00:59:46;;;;;;;17.23;13.63;;;;;;;0.30;58.17;95293.97;4999130;28;20223;-60
2022/03/02 01:02:11;;;;;;;17.90;14.20;;;;;;;0.25;58.17;95289.03;4999286;28;20287;-61
2022/03/02 01:04:37;;;;;;;15.97;14.10;;;;;;;0.12;58.45;95288.03;4997728;28;20229;-61
2022/03/02 01:07:03;;;;;;;14.97;13.17;;;;;;;-0.04;58.97;95283.66;5005836;28;20222;-60
2022/03/02 01:09:28;;;;;;;15.30;13.17;;;;;;;0.05;58.42;95290.09;5002218;28;20262;-58
2022/03/02 01:11:54;;;;;;;14.70;12.83;;;;;;;0.02;57.91;95285.09;5003999;28;20237;-59
2022/03/02 01:14:19;;;;;;;14.90;12.83;;;;;;;0.07;58.67;95284.84;5000544;28;20282;-60
2022/03/02 01:16:45;;;;;;;15.03;12.47;;;;;;;0.02;58.02;95281.66;5001134;28;20208;-61
2022/03/02 01:19:10;;;;;;;14.00;12.17;;;;;;;0.11;57.86;95273.44;5000941;28;20199;-59
2022/03/02 01:21:36;;;;;;;14.17;12.13;;;;;;;0.09;57.54;95280.44;4996444;28;20371;-61
2022/03/02 01:24:02;;;;;;;13.50;12.03;;;;;;;-0.07;58.13;95276.06;4999566;28;20242;-60
2022/03/02 01:26:29;;;;;;;14.90;12.63;;;;;;;0.04;57.21;95279.84;4999545;28;20242;-57
2022/03/02 01:28:55;;;;;;;15.57;12.93;;;;;;;0.02;57.18;95273.91;5000627;28;20247;-57
2022/03/02 01:31:26;;;;;;;15.10;13.17;;;;;;;-0.04;57.25;95270.75;4994561;28;20259;-61
2022/03/02 01:33:52;;;;;;;17.20;14.63;;;;;;;0.05;57.61;95263.41;4997943;28;20243;-62
2022/03/02 01:36:19;;;;;;;15.73;13.20;;;;;;;0.04;57.25;95261.75;5001343;28;20226;-57
2022/03/02 01:38:44;;;;;;;15.87;14.17;;;;;;;-0.02;57.55;95268.91;4996960;28;20232;-60
2022/03/02 01:41:13;;;;;;;16.70;14.07;;;;;;;-0.06;57.93;95257.06;5003859;28;20227;-59
2022/03/02 01:43:39;;;;;;;18.00;14.93;;;;;;;-0.02;58.12;95261.16;4999671;28;20247;-60
2022/03/02 01:46:04;;;;;;;18.70;14.47;;;;;;;-0.12;58.12;95257.38;4997522;28;20207;-61
2022/03/02 01:48:30;;;;;;;18.90;14.70;;;;;;;-0.20;59.08;95264.72;5000982;28;20232;-63
2022/03/02 01:50:55;;;;;;;16.37;13.43;;;;;;;-0.30;58.27;95263.53;4997096;28;20226;-58
2022/03/02 01:53:21;;;;;;;15.53;12.47;;;;;;;-0.38;58.46;95255.34;4999802;28;20226;-56
2022/03/02 01:55:46;;;;;;;17.23;13.50;;;;;;;-0.31;58.45;95254.09;4996293;28;20195;-54
2022/03/02 01:58:12;;;;;;;13.77;12.00;;;;;;;-0.31;58.24;95247.19;4997483;28;20207;-61
2022/03/02 02:00:37;;;;;;;14.03;12.53;;;;;;;-0.39;58.64;95243.34;4998343;28;20219;-59
2022/03/02 02:03:03;;;;;;;14.30;12.57;;;;;;;-0.41;58.35;95247.75;4995449;28;20294;-60
2022/03/02 02:05:29;;;;;;;13.87;12.23;;;;;;;-0.35;58.39;95248.25;4996001;28;20224;-57
2022/03/02 02:07:55;;;;;;;13.57;12.17;;;;;;;-0.33;58.10;95249.00;5001552;28;20232;-61
2022/03/02 02:10:21;;;;;;;13.60;12.20;;;;;;;-0.53;58.21;95237.16;4998837;28;20253;-60
2022/03/02 02:12:47;;;;;;;12.93;11.63;;;;;;;-0.73;59.24;95234.75;4998839;28;20303;-60
2022/03/02 02:15:13;;;;;;;14.67;12.27;;;;;;;-0.74;59.30;95230.50;4995257;28;20215;-59
2022/03/02 02:17:41;;;;;;;13.80;12.07;;;;;;;-0.63;59.24;95225.63;5001738;28;20222;-60
2022/03/02 02:20:08;;;;;;;13.83;12.33;;;;;;;-0.63;59.07;95233.38;4997355;28;20262;-60
2022/03/02 02:22:38;;;;;;;12.83;11.50;;;;;;;-0.70;59.20;95226.84;4999310;28;20211;-60
2022/03/02 02:25:04;;;;;;;13.03;11.73;;;;;;;-0.65;59.21;95237.75;4996978;28;20222;-61
2022/03/02 02:27:31;;;;;;;13.70;11.33;;;;;;;-0.76;59.15;95225.41;4996846;28;20300;-60
2022/03/02 02:29:58;;;;;;;13.10;11.70;;;;;;;-0.73;59.54;95229.56;4999007;28;20254;-61
2022/03/02 02:32:23;;;;;;;14.03;11.93;;;;;;;-0.74;59.14;95233.09;5003136;28;20218;-61
2022/03/02 02:34:49;;;;;;;13.23;11.60;;;;;;;-0.82;59.33;95230.88;5005983;28;20234;-61
2022/03/02 02:37:15;;;;;;;13.97;12.00;;;;;;;-0.68;59.20;95225.00;5001185;28;20298;-59
2022/03/02 02:39:40;;;;;;;12.53;11.30;;;;;;;-0.68;58.79;95227.59;5018630;28;20227;-61
2022/03/02 02:42:07;;;;;;;11.30;10.17;;;;;;;-0.70;58.58;95225.06;5005895;28;20340;-60
2022/03/02 02:44:34;;;;;;;12.10;10.93;;;;;;;-0.59;58.33;95231.44;4998774;28;20245;-59
2022/03/02 02:47:00;;;;;;;12.37;11.13;;;;;;;-0.65;58.69;95226.59;5001778;28;20250;-59
2022/03/02 02:49:26;;;;;;;12.03;10.77;;;;;;;-0.80;59.75;95221.31;5006285;28;20210;-57
2022/03/02 02:51:53;;;;;;;11.83;10.57;;;;;;;-1.04;60.14;95230.28;4999728;28;20208;-59
2022/03/02 02:54:20;;;;;;;11.80;10.60;;;;;;;-1.03;60.89;95231.97;5002826;28;20219;-60
2022/03/02 02:56:46;;;;;;;11.67;10.43;;;;;;;-1.08;60.48;95223.63;4996499;28;20238;-58
2022/03/02 02:59:11;;;;;;;12.43;11.13;;;;;;;-0.92;60.78;95232.25;4999169;28;20241;-60
2022/03/02 03:01:37;;;;;;;13.27;11.70;;;;;;;-1.06;61.82;95224.38;5003784;28;20219;-60
2022/03/02 03:04:03;;;;;;;10.57;9.43;;;;;;;-1.01;59.56;95230.16;5006274;28;20207;-61
2022/03/02 03:06:29;;;;;;;11.87;10.67;;;;;;;-1.05;59.36;95232.03;5001426;28;20219;-60
2022/03/02 03:08:55;;;;;;;10.97;9.87;;;;;;;-1.00;60.10;95227.47;5001538;28;20287;-60
2022/03/02 03:11:21;;;;;;;10.37;9.37;;;;;;;-1.02;60.01;95228.47;5002315;28;20214;-61
2022/03/02 03:13:46;;;;;;;11.43;9.67;;;;;;;-1.02;59.23;95221.56;5001604;28;20226;-58
2022/03/02 03:16:12;;;;;;;9.90;8.90;;;;;;;-0.85;57.70;95219.91;5006200;28;20226;-58
2022/03/02 03:18:37;;;;;;;8.93;8.13;;;;;;;-0.84;57.00;95221.56;4998714;28;20215;-57
2022/03/02 03:21:03;;;;;;;9.50;8.60;;;;;;;-0.83;56.62;95220.63;5000767;28;20214;-59
2022/03/02 03:23:28;;;;;;;8.60;7.80;;;;;;;-0.89;56.99;95229.53;5003175;28;20255;-58
2022/03/02 03:25:54;;;;;;;8.87;7.97;;;;;;;-0.85;57.07;95228.47;5006521;28;20238;-59
2022/03/02 03:28:19;;;;;;;7.90;7.20;;;;;;;-0.91;56.79;95221.88;5004245;28;20211;-58
2022/03/02 03:30:45;;;;;;;8.83;8.03;;;;;;;-0.87;57.25;95219.97;5002486;28;20235;-61
2022/03/02 03:33:11;;;;;;;9.47;7.60;;;;;;;-0.86;57.12;95218.19;4998005;28;20231;-60
2022/03/02 03:35:36;;;;;;;7.97;7.20;;;;;;;-0.85;56.97;95228.47;4999315;28;20215;-63
2022/03/02 03:38:02;;;;;;;8.30;7.50;;;;;;;-0.82;56.99;95209.41;4999474;28;20223;-60
2022/03/02 03:40:28;;;;;;;9.20;8.10;;;;;;;-0.75;57.27;95221.06;5004509;28;20274;-58
2022/03/02 03:42:55;;;;;;;8.43;7.63;;;;;;;-0.69;57.29;95226.78;5006548;28;20228;-57
2022/03/02 03:45:21;;;;;;;8.13;7.33;;;;;;;-0.62;57.35;95218.69;5005220;28;20220;-62
2022/03/02 03:47:47;;;;;;;8.60;7.80;;;;;;;-0.62;57.39;95232.44;5003194;28;20235;-55
2022/03/02 03:50:14;;;;;;;8.60;7.80;;;;;;;-0.64;58.05;95223.09;4997755;28;20286;-61
2022/03/02 03:52:40;;;;;;;8.97;8.17;;;;;;;-0.64;57.86;95220.50;4999439;28;20218;-61
2022/03/02 03:55:07;;;;;;;8.83;7.50;;;;;;;-0.65;58.23;95205.94;5003957;28;20306;-61
2022/03/02 03:57:32;;;;;;;8.13;7.33;;;;;;;-0.59;58.42;95205.63;4993416;28;20226;-61
2022/03/02 03:59:58;;;;;;;8.43;7.13;;;;;;;-0.52;58.28;95218.13;5003023;28;20285;-55
2022/03/02 04:02:23;;;;;;;8.70;7.80;;;;;;;-0.59;58.97;95211.63;5002761;28;20227;-61
2022/03/02 04:04:49;;;;;;;8.97;8.07;;;;;;;-0.45;59.30;95216.09;5005990;28;20199;-62
2022/03/02 04:07:14;;;;;;;9.57;8.27;;;;;;;-0.53;59.45;95207.91;4987920;28;20222;-62
2022/03/02 04:09:40;;;;;;;8.63;7.73;;;;;;;-0.52;59.63;95202.63;5006259;28;20223;-58
2022/03/02 04:12:06;;;;;;;8.50;7.70;;;;;;;-0.47;59.90;95216.16;5006109;28;20223;-60
2022/03/02 04:14:31;;;;;;;7.90;7.20;;;;;;;-0.46;59.73;95206.66;5004493;28;20266;-58
2022/03/02 04:16:57;;;;;;;8.67;7.73;;;;;;;-0.48;59.67;95209.34;5005030;28;20223;-61
2022/03/02 04:19:22;;;;;;;8.37;7.47;;;;;;;-0.36;59.60;95207.84;5003832;28;20211;-62
2022/03/02 04:21:48;;;;;;;8.30;7.50;;;;;;;-0.47;59.83;95207.56;5002185;28;20219;-56
2022/03/02 04:24:13;;;;;;;8.50;7.63;;;;;;;-0.40;59.68;95200.31;5002670;28;20231;-59
2022/03/02 04:26:39;;;;;;;8.60;7.70;;;;;;;-0.35;59.45;95203.50;5002532;28;20250;-60
2022/03/02 04:29:04;;;;;;;9.60;8.10;;;;;;;-0.47;59.97;95195.47;5000738;28;20237;-61
2022/03/02 04:31:30;;;;;;;9.33;8.03;;;;;;;-0.43;59.83;95209.06;5003432;28;20208;-56
2022/03/02 04:33:55;;;;;;;9.27;8.07;;;;;;;-0.35;59.58;95199.16;5005238;28;20223;-60
2022/03/02 04:36:21;;;;;;;9.57;8.00;;;;;;;-0.24;59.20;95204.63;5002693;28;20239;-57
2022/03/02 04:38:46;;;;;;;9.30;8.30;;;;;;;-0.36;59.46;95213.00;4999137;28;20222;-57
2022/03/02 04:41:12;;;;;;;8.67;7.83;;;;;;;-0.34;59.50;95211.19;4999341;28;20211;-57
2022/03/02 04:43:38;;;;;;;11.43;8.87;;;;;;;-0.33;60.21;95206.84;5001051;28;20226;-60
2022/03/02 04:46:03;;;;;;;12.00;8.07;;;;;;;-0.35;59.95;95209.50;4999901;28;20203;-56
2022/03/02 04:48:29;;;;;;;11.30;8.50;;;;;;;-0.42;60.08;95209.94;5001278;28;20246;-60
2022/03/02 04:50:55;;;;;;;11.07;9.50;;;;;;;-0.31;60.12;95199.84;4999106;28;20250;-61
2022/03/02 04:53:23;;;;;;;10.67;8.63;;;;;;;-0.42;60.34;95192.66;5003668;28;20233;-58
2022/03/02 04:55:50;;;;;;;9.97;8.97;;;;;;;-0.33;60.22;95199.09;4999225;28;20270;-58
2022/03/02 04:58:16;;;;;;;9.73;7.97;;;;;;;-0.42;60.81;95208.16;4999956;28;20211;-59
2022/03/02 05:00:42;;;;;;;8.70;7.80;;;;;;;-0.51;60.85;95195.72;5002883;28;20249;-59
2022/03/02 05:03:07;;;;;;;9.93;8.93;;;;;;;-0.38;60.68;95194.16;5002075;28;20248;-56
2022/03/02 05:05:36;;;;;;;9.03;7.80;;;;;;;-0.39;60.64;95191.69;5002056;28;20223;-59
2022/03/02 05:08:03;;;;;;;9.33;7.70;;;;;;;-0.35;60.82;95190.56;5014311;28;20212;-62
2022/03/02 05:10:29;;;;;;;9.77;8.77;;;;;;;-0.42;60.94;95184.09;5000632;28;20204;-57
2022/03/02 05:12:55;;;;;;;11.37;7.80;;;;;;;-0.32;60.91;95193.00;5002657;28;20220;-56
2022/03/02 05:15:22;;;;;;;10.00;7.47;;;;;;;-0.32;60.79;95186.09;4984641;28;20227;-56
2022/03/02 05:17:49;;;;;;;9.67;8.07;;;;;;;-0.41;61.33;95193.50;4999607;28;20215;-59
2022/03/02 05:20:16;;;;;;;8.73;7.90;;;;;;;-0.40;61.76;95185.69;5003117;28;20230;-58
2022/03/02 05:22:42;;;;;;;9.53;8.53;;;;;;;-0.32;61.37;95186.09;4999260;28;20215;-60
2022/03/02 05:25:08;;;;;;;9.80;8.10;;;;;;;-0.31;61.73;95202.44;5001395;28;20226;-60
2022/03/02 05:27:34;;;;;;;11.00;7.37;;;;;;;-0.20;61.58;95196.69;5002417;28;20219;-60
2022/03/02 05:30:00;;;;;;;9.87;8.07;;;;;;;-0.20;61.64;95189.78;5000000;28;20223;-56
2022/03/02 05:32:25;;;;;;;8.67;7.77;;;;;;;-0.28;62.12;95186.75;4998637;28;20289;-57
2022/03/02 05:34:51;;;;;;;11.83;8.77;;;;;;;-0.25;62.14;95184.00;5003171;28;20211;-60
2022/03/02 05:37:16;;;;;;;11.20;9.07;;;;;;;-0.10;62.00;95203.03;4998813;28;20219;-61
2022/03/02 05:39:42;;;;;;;10.13;8.83;;;;;;;-0.12;61.92;95200.53;4998596;28;20227;-61
2022/03/02 05:42:08;;;;;;;9.53;8.63;;;;;;;-0.30;62.98;95201.50;5001662;28;20219;-60
2022/03/02 05:44:33;;;;;;;9.80;8.90;;;;;;;-0.16;62.95;95200.75;5000665;28;20242;-55
2022/03/02 05:46:59;;;;;;;11.60;8.83;;;;;;;-0.15;62.75;95197.28;5004880;28;20848;-58
2022/03/02 05:49:24;;;;;;;9.63;8.63;;;;;;;-0.19;62.93;95199.19;5001244;28;20207;-58
2022/03/02 05:51:50;;;;;;;10.07;9.07;;;;;;;-0.17;63.19;95205.09;4996671;28;20239;-57
2022/03/02 05:54:16;;;;;;;10.50;9.40;;;;;;;-0.10;63.25;95201.28;4994724;28;20302;-57
2022/03/02 05:56:42;;;;;;;10.53;9.43;;;;;;;-0.06;62.82;95200.19;5001406;28;20244;-59
2022/03/02 05:59:10;;;;;;;9.73;8.73;;;;;;;0.04;63.06;95197.13;5011641;28;20312;-58
2022/03/02 06:01:37;;;;;;;11.90;10.23;;;;;;;0.04;62.74;95200.53;4994633;28;20235;-59
2022/03/02 06:04:05;;;;;;;10.87;9.77;;;;;;;0.00;62.68;95193.88;5013731;28;20211;-59
2022/03/02 06:06:35;;;;;;;11.00;9.47;;;;;;;0.03;62.92;95198.00;4997670;28;20311;-57
2022/03/02 06:09:01;;;;;;;11.13;9.97;;;;;;;0.03;62.72;95200.59;5002338;28;20219;-58
2022/03/02 06:11:27;;;;;;;11.33;10.23;;;;;;;0.10;62.46;95204.53;4998014;28;20227;-56
2022/03/02 06:13:54;;;;;;;12.73;10.53;;;;;;;0.18;62.67;95207.53;5001530;28;20215;-56
2022/03/02 06:16:20;;;;;;;11.20;10.00;;;;;;;0.17;62.53;95200.69;5000408;28;20211;-58
2022/03/02 06:18:45;;;;;;;11.57;10.33;;;;;;;0.20;62.64;95210.88;4999316;28;20290;-58
2022/03/02 06:21:16;;;;;;;11.53;10.37;;;;;;;0.28;62.44;95206.09;4996594;28;20226;-58
2022/03/02 06:23:42;;;;;;;11.47;10.37;;;;;;;0.31;62.07;95202.50;4998090;28;20239;-60
2022/03/02 06:26:07;;;;;;;12.03;10.80;;;;;;;0.34;62.21;95210.94;5002539;28;20227;-59
2022/03/02 06:28:34;;;;;;;11.23;10.13;;;;;;;0.35;61.76;95198.84;4984351;28;20210;-59
2022/03/02 06:30:59;;;;;;;11.43;10.33;;;;;;;0.47;61.68;95198.16;4994986;28;20226;-62
2022/03/02 06:33:25;;;;;;;13.67;10.77;;;;;;;0.38;61.76;95199.50;5003936;28;20226;-58
2022/03/02 06:35:50;;;;;;;11.17;10.07;;;;;;;0.41;61.71;95196.75;5001047;28;20258;-54
2022/03/02 06:38:17;;;;;;;12.40;11.10;;;;;;;0.52;61.76;95196.13;4998698;28;20219;-60
2022/03/02 06:41:01;;;;;;;12.70;10.87;;;;;;;0.54;61.79;95191.72;5000759;28;20310;-59
2022/03/02 06:43:33;;;;;;;12.27;10.97;;;;;;;0.60;61.48;95190.53;4993756;28;20295;-59
2022/03/02 06:46:06;;;;;;;12.30;11.10;;;;;;;0.56;61.49;95191.63;4997354;28;20227;-58
2022/03/02 06:48:41;;;;;;;12.33;11.17;;;;;;;0.40;61.44;95184.75;4994831;28;20238;-58
2022/03/02 06:51:11;;;;;;;12.13;10.77;;;;;;;0.46;61.78;95183.56;4994189;28;20234;-59
2022/03/02 06:53:37;;;;;;;12.30;11.00;;;;;;;0.58;61.46;95202.72;5000704;28;20240;-62
2022/03/02 06:56:07;;;;;;;13.47;12.00;;;;;;;0.72;61.01;95191.56;5002678;28;20223;-60
2022/03/02 06:58:41;;;;;;;14.90;11.93;;;;;;;0.78;60.66;95193.84;4997045;28;20219;-54
2022/03/02 07:01:09;;;;;;;12.43;11.03;;;;;;;0.74;60.41;95187.97;5001239;28;20261;-56
2022/03/02 07:03:41;;;;;;;12.73;10.73;;;;;;;0.76;60.35;95191.31;4999127;28;20215;-62
2022/03/02 07:06:07;;;;;;;16.23;10.73;;;;;;;0.80;60.51;95181.63;4999527;28;20230;-59
2022/03/02 07:08:36;;;;;;;13.67;11.47;;;;;;;0.81;60.55;95186.72;4999069;28;20223;-60
2022/03/02 07:11:02;;;;;;;12.47;10.90;;;;;;;0.87;59.76;95176.00;4996604;28;20235;-62
2022/03/02 07:13:28;;;;;;;12.77;10.83;;;;;;;0.64;60.19;95168.72;4996505;28;20226;-59
2022/03/02 07:15:53;;;;;;;12.10;10.90;;;;;;;0.82;60.44;95183.19;5003222;28;20302;-58
2022/03/02 07:18:19;;;;;;;13.70;12.17;;;;;;;0.87;59.77;95181.16;4996674;28;20227;-60
2022/03/02 07:20:47;;;;;;;12.23;10.93;;;;;;;0.74;59.88;95172.44;4998857;28;20246;-59
2022/03/02 07:23:18;;;;;;;12.57;11.27;;;;;;;0.86;59.43;95169.16;4998976;28;20273;-61
2022/03/02 07:25:45;;;;;;;12.67;11.23;;;;;;;1.00;59.27;95170.13;5000816;28;20231;-60
2022/03/02 07:28:12;;;;;;;12.30;11.10;;;;;;;1.02;58.87;95173.44;5001422;28;20211;-62
2022/03/02 07:30:39;;;;;;;12.60;11.30;;;;;;;1.08;58.82;95179.09;4997153;28;20230;-61
2022/03/02 07:33:05;;;;;;;13.47;12.00;;;;;;;1.23;59.08;95166.16;5001607;28;20231;-62
2022/03/02 07:35:36;;;;;;;12.40;11.20;;;;;;;1.19;58.55;95170.69;5005846;28;20239;-61
2022/03/02 07:38:03;;;;;;;13.47;11.60;;;;;;;1.23;58.22;95156.63;4998282;28;20240;-62
2022/03/02 07:40:29;;;;;;;12.63;11.33;;;;;;;1.28;58.68;95159.78;4999468;28;20207;-60
2022/03/02 07:42:54;;;;;;;13.73;12.17;;;;;;;1.32;58.85;95163.03;5006012;28;20242;-62
2022/03/02 07:45:20;;;;;;;16.57;12.47;;;;;;;1.41;58.41;95161.63;4998340;28;20218;-61
2022/03/02 07:47:47;;;;;;;14.63;11.67;;;;;;;1.47;58.13;95153.47;5003366;28;20235;-61
2022/03/02 07:50:13;;;;;;;15.53;11.90;;;;;;;1.44;57.53;95151.06;5002878;28;20224;-64
2022/03/02 07:52:46;;;;;;;16.50;13.07;;;;;;;1.48;58.16;95155.16;4997397;28;20211;-62
2022/03/02 07:55:12;;;;;;;20.30;14.93;;;;;;;1.45;59.00;95152.75;5004812;28;20242;-59
2022/03/02 07:57:41;;;;;;;15.47;13.70;;;;;;;1.54;58.18;95154.78;4998917;28;20306;-61
2022/03/02 08:00:09;;;;;;;18.00;13.90;;;;;;;1.62;57.68;95160.31;4998667;28;20330;-58
2022/03/02 08:02:35;;;;;;;16.77;13.40;;;;;;;1.51;58.46;95154.97;5002055;28;20224;-61
2022/03/02 08:05:01;;;;;;;18.97;15.27;;;;;;;1.52;57.94;95151.44;5004650;28;20219;-60
2022/03/02 08:07:27;;;;;;;16.93;15.10;;;;;;;1.58;58.41;95158.84;5004203;28;20199;-62
2022/03/02 08:09:53;;;;;;;18.43;14.37;;;;;;;1.45;58.78;95147.56;4998968;28;20249;-60
2022/03/02 08:12:23;;;;;;;18.70;15.17;;;;;;;1.45;58.93;95145.81;5000857;28;20235;-61
2022/03/02 08:14:50;;;;;;;16.23;14.53;;;;;;;1.58;58.37;95151.09;5000499;28;20223;-58
2022/03/02 08:17:17;;;;;;;19.07;14.57;;;;;;;1.61;58.02;95150.88;5002328;28;20227;-58
2022/03/02 08:19:43;;;;;;;16.90;14.63;;;;;;;1.68;58.04;95131.41;4999589;28;20215;-61
2022/03/02 08:22:20;;;;;;;18.03;14.87;;;;;;;1.77;57.94;95143.00;5001878;28;20210;-55
2022/03/02 08:25:10;;;;;;;19.30;14.37;;;;;;;1.82;57.57;95146.13;4998134;28;20246;-56
2022/03/02 08:27:39;;;;;;;17.67;14.20;;;;;;;1.66;57.88;95143.66;4996269;28;20238;-56
2022/03/02 08:30:06;;;;;;;19.13;14.73;;;;;;;1.65;58.04;95130.78;4999395;28;20229;-58
2022/03/02 08:32:37;;;;;;;21.40;15.77;;;;;;;1.76;57.73;95124.03;4997077;28;20303;-55
2022/03/02 08:35:04;;;;;;;20.33;15.20;;;;;;;1.84;57.55;95130.47;5003886;28;20302;-58
2022/03/02 08:37:30;;;;;;;19.83;15.67;;;;;;;1.97;57.01;95126.19;4999242;28;20338;-58
2022/03/02 08:39:56;;;;;;;18.50;16.47;;;;;;;1.96;57.55;95122.75;4999637;28;20237;-61
2022/03/02 08:42:22;;;;;;;17.60;14.47;;;;;;;2.06;57.10;95123.00;5000549;28;20223;-63
2022/03/02 08:44:47;;;;;;;19.80;15.57;;;;;;;1.90;57.42;95122.31;5001288;28;20227;-58
2022/03/02 08:47:14;;;;;;;18.33;16.40;;;;;;;1.92;57.54;95121.28;4998049;28;20254;-62
2022/03/02 08:49:39;;;;;;;17.27;15.47;;;;;;;1.72;57.32;95117.34;4994492;28;20212;-63
2022/03/02 08:52:05;;;;;;;18.00;15.00;;;;;;;2.04;56.88;95111.06;4984516;28;20249;-61
2022/03/02 08:54:35;;;;;;;17.87;15.97;;;;;;;2.35;55.61;95102.13;5001891;28;20239;-61
2022/03/02 08:57:02;;;;;;;18.30;15.83;;;;;;;2.67;55.37;95112.16;4998943;28;20243;-59
2022/03/02 08:59:29;;;;;;;22.10;16.30;;;;;;;2.85;54.51;95108.34;4993367;28;20274;-59
2022/03/02 09:01:54;;;;;;;22.07;16.73;;;;;;;2.97;54.53;95112.72;4997641;28;23035;-56
2022/03/02 09:04:22;;;;;;;17.50;15.63;;;;;;;2.94;53.25;95096.50;5000295;28;20211;-59
2022/03/02 09:06:49;;;;;;;20.47;16.43;;;;;;;3.07;53.19;95099.94;4986846;28;20295;-61
2022/03/02 09:09:16;;;;;;;19.47;15.77;;;;;;;3.29;52.39;95100.16;5000758;28;20254;-61
2022/03/02 09:11:43;;;;;;;17.57;15.73;;;;;;;3.32;52.32;95096.50;5000725;28;20223;-61
2022/03/02 09:14:09;;;;;;;17.90;16.03;;;;;;;3.46;51.73;95091.16;5000784;28;20269;-60
2022/03/02 09:16:35;;;;;;;17.27;15.37;;;;;;;3.50;51.32;95086.56;4999144;28;20210;-61
2022/03/02 09:19:01;;;;;;;17.13;15.10;;;;;;;3.60;51.00;95085.00;4999607;28;20247;-60
2022/03/02 09:21:27;;;;;;;17.60;15.47;;;;;;;3.58;50.78;95086.03;5002186;28;20224;-60
2022/03/02 09:23:55;;;;;;;16.33;14.73;;;;;;;3.62;50.90;95084.91;4998738;28;20231;-59
2022/03/02 09:26:21;;;;;;;18.83;16.50;;;;;;;3.97;50.26;95083.22;4996622;28;20253;-60
2022/03/02 09:28:51;;;;;;;18.60;16.67;;;;;;;4.06;50.80;95075.69;4998550;28;20226;-57
2022/03/02 09:31:20;;;;;;;18.37;16.50;;;;;;;4.14;49.40;95074.22;4996355;28;20219;-61
2022/03/02 09:33:58;;;;;;;19.87;16.17;;;;;;;4.05;50.62;95064.47;4999769;28;20367;-58
2022/03/02 09:36:25;;;;;;;17.87;16.03;;;;;;;4.14;50.50;95078.56;4993668;28;20237;-60
2022/03/02 09:38:52;;;;;;;18.47;16.43;;;;;;;3.71;50.64;95061.66;4999402;28;20223;-60
2022/03/02 09:41:27;;;;;;;19.13;17.13;;;;;;;3.91;50.62;95065.47;4997242;28;20227;-58
2022/03/02 09:43:57;;;;;;;19.27;17.27;;;;;;;3.98;50.14;95052.81;4997841;28;20217;-60
2022/03/02 09:46:36;;;;;;;18.30;16.50;;;;;;;3.95;49.75;95060.84;5000845;28;20203;-61
2022/03/02 09:49:12;;;;;;;19.20;17.00;;;;;;;4.15;48.98;95067.25;5014764;28;20215;-61
2022/03/02 09:51:39;;;;;;;20.43;16.20;;;;;;;4.22;49.11;95057.19;5001186;28;20215;-61
2022/03/02 09:54:05;;;;;;;17.53;15.73;;;;;;;4.41;48.56;95063.56;4995145;28;20223;-62
2022/03/02 09:56:35;;;;;;;16.47;14.80;;;;;;;4.26;48.11;95062.06;4998432;28;20230;-61
2022/03/02 09:59:03;;;;;;;14.60;13.10;;;;;;;4.10;47.48;95051.13;4998214;28;20254;-61
2022/03/02 10:01:31;;;;;;;16.40;14.70;;;;;;;4.33;47.73;95052.88;5015009;28;20304;-61
2022/03/02 10:04:06;;;;;;;16.03;14.37;;;;;;;4.37;47.08;95059.50;5000501;28;20227;-61
2022/03/02 10:06:31;;;;;;;16.73;14.87;;;;;;;4.62;46.50;95039.44;5001004;28;20260;-58
2022/03/02 10:09:00;;;;;;;16.80;15.00;;;;;;;4.70;46.33;95050.13;5000384;28;20295;-59
2022/03/02 10:11:26;;;;;;;17.63;15.80;;;;;;;4.68;47.29;95044.22;4997871;28;20296;-62
2022/03/02 10:13:56;;;;;;;15.90;14.33;;;;;;;4.36;47.49;95037.03;4996569;28;20273;-61
2022/03/02 10:16:27;;;;;;;16.90;15.10;;;;;;;4.76;47.60;95034.06;4998526;28;20254;-63
2022/03/02 10:18:58;;;;;;;16.60;14.90;;;;;;;5.12;46.13;95019.16;5001882;28;20223;-61
2022/03/02 10:21:28;;;;;;;24.10;14.73;;;;;;;5.33;45.70;95024.47;5002129;28;20291;-61
2022/03/02 10:23:59;;;;;;;15.93;14.30;;;;;;;5.44;44.98;95018.41;5010146;28;20294;-61
2022/03/02 10:26:29;;;;;;;15.13;13.63;;;;;;;5.55;44.14;95026.22;4993808;28;20243;-62
2022/03/02 10:29:00;;;;;;;14.67;12.30;;;;;;;5.29;43.34;95015.22;5000019;28;20262;-60
2022/03/02 10:31:43;;;;;;;14.37;12.87;;;;;;;5.44;42.77;95018.41;5000610;28;20232;-60
2022/03/02 10:34:18;;;;;;;14.90;13.30;;;;;;;5.51;43.97;95011.78;4998290;28;20227;-61
2022/03/02 10:36:50;;;;;;;15.60;13.73;;;;;;;5.73;43.25;95005.69;4999851;28;20214;-61
2022/03/02 10:39:49;;;;;;;15.43;12.67;;;;;;;5.53;42.79;95007.25;5000964;28;20219;-62
2022/03/02 10:42:23;;;;;;;16.20;14.20;;;;;;;5.33;46.78;95003.63;4911168;29;20368;-60
2022/03/02 10:45:10;;;;;;;17.60;14.03;;;;;;;5.62;46.93;94995.28;4923005;29;20298;-61
2022/03/02 10:47:44;;;;;;;17.77;14.43;;;;;;;5.68;45.00;94994.78;4925018;29;20225;-58
2022/03/02 10:50:10;;;;;;;16.57;14.47;;;;;;;5.82;45.32;94983.25;4921712;29;20245;-61
2022/03/02 10:52:38;;;;;;;15.20;13.63;;;;;;;5.71;44.40;94974.50;4928231;29;20242;-58
2022/03/02 10:55:06;;;;;;;17.90;14.57;;;;;;;6.01;45.21;94970.38;4926106;29;20205;-61
2022/03/02 10:57:33;;;;;;;16.33;13.87;;;;;;;6.15;44.60;94972.72;4927747;29;20237;-61
2022/03/02 11:00:04;;;;;;;15.47;13.77;;;;;;;5.86;44.95;94964.59;4924636;29;20226;-62
2022/03/02 11:02:33;;;;;;;14.80;13.20;;;;;;;6.10;45.57;94969.66;4905993;29;20308;-61
2022/03/02 11:05:02;;;;;;;15.57;13.97;;;;;;;6.24;43.67;94965.06;4912020;29;20300;-63
2022/03/02 11:07:28;;;;;;;15.57;13.90;;;;;;;6.31;43.10;94947.94;4910541;29;20325;-58
2022/03/02 11:09:54;;;;;;;14.70;13.30;;;;;;;6.29;42.52;94939.41;4921624;29;20339;-61
2022/03/02 11:12:22;;;;;;;17.00;12.90;;;;;;;6.42;42.97;94947.06;4925662;29;20237;-59
2022/03/02 11:15:02;;;;;;;14.73;13.10;;;;;;;6.55;42.24;94948.50;4932518;29;20335;-61
2022/03/02 11:17:28;;;;;;;14.20;12.77;;;;;;;6.27;41.52;94946.53;4925632;29;20236;-61
2022/03/02 11:19:56;;;;;;;14.67;13.10;;;;;;;6.10;42.55;94938.31;4983975;28;20282;-60
2022/03/02 11:22:24;;;;;;;18.03;14.20;;;;;;;6.40;43.02;94927.09;5001271;28;20203;-60
2022/03/02 11:25:00;;;;;;;14.50;13.00;;;;;;;6.17;41.70;94929.03;4998760;28;20223;-62
2022/03/02 11:27:27;;;;;;;15.47;13.60;;;;;;;6.45;43.36;94929.34;4996035;28;20226;-60